Time;durP1;ratioP1;P1;durP2;ratioP2;P2;SDS_P1;SDS_P2;PMS_P1;PMS_P2;Temp;Humidity;BMP_temperature;BMP_pressure;BME280_temperature;BME280_humidity;BME280_pressure;Samples;Min_cycle;Max_cycle;Signal;HPM_P1;HPM_P2
2021/12/24 00:01:50;;;;;;;18.50;11.85;;;;;;;0.48;83.51;95261.81;1768623;79;21056;-87
2021/12/24 00:04:16;;;;;;;13.45;8.75;;;;;;;0.44;83.81;95265.14;1763324;79;21457;-83
2021/12/24 00:06:42;;;;;;;24.37;17.60;;;;;;;0.39;83.84;95246.09;1761314;79;21098;-84
2021/12/24 00:09:08;;;;;;;10.53;7.70;;;;;;;0.34;84.67;95247.02;1742673;79;20972;-84
2021/12/24 00:11:34;;;;;;;8.98;7.17;;;;;;;0.30;86.25;95226.84;1786960;79;20941;-84
2021/12/24 00:14:03;;;;;;;12.50;8.45;;;;;;;0.38;87.01;95236.83;1775000;79;22220;-84
2021/12/24 00:16:52;;;;;;;12.30;9.88;;;;;;;0.37;87.34;95225.00;1780105;79;21381;-84
2021/12/24 00:35:13;;;;;;;13.72;11.63;;;;;;;0.52;90.75;95168.58;1778077;79;21174;-84
2021/12/24 00:37:35;;;;;;;11.08;9.13;;;;;;;0.59;89.87;95165.26;1772282;79;20991;-84
2021/12/24 00:40:21;;;;;;;9.30;6.55;;;;;;;0.68;89.05;95162.29;1770921;79;21375;-84
2021/12/24 00:42:50;;;;;;;17.23;11.05;;;;;;;0.71;88.59;95144.56;1776257;79;20945;-84
2021/12/24 00:45:21;;;;;;;8.13;6.12;;;;;;;0.75;88.27;95125.41;1769288;79;20978;-84
2021/12/24 00:47:47;;;;;;;7.40;6.17;;;;;;;0.79;87.77;95130.53;1768147;79;21066;-84
2021/12/24 00:50:16;;;;;;;7.53;5.80;;;;;;;0.82;87.20;95132.33;1772116;80;21287;-83
2021/12/24 00:52:52;;;;;;;9.35;8.43;;;;;;;0.87;86.80;95125.47;1798720;79;21016;-82
2021/12/24 00:55:19;;;;;;;6.67;5.85;;;;;;;0.91;86.92;95120.38;1781192;79;21019;-83
2021/12/24 00:57:49;;;;;;;7.53;5.33;;;;;;;0.93;86.84;95103.59;1768769;79;21082;-82
2021/12/24 01:00:24;;;;;;;8.58;6.58;;;;;;;0.97;86.19;95108.23;1774695;79;21109;-82
2021/12/24 01:02:52;;;;;;;9.73;7.08;;;;;;;0.99;86.18;95100.44;1784084;79;21371;-83
2021/12/24 01:05:18;;;;;;;12.93;8.75;;;;;;;1.05;85.96;95107.48;1796506;78;20988;-83
2021/12/24 01:07:45;;;;;;;9.55;7.30;;;;;;;1.08;85.48;95107.17;1796051;77;20999;-83
2021/12/24 01:10:12;;;;;;;15.85;11.90;;;;;;;1.09;85.25;95100.62;1800111;78;21030;-83
2021/12/24 01:12:39;;;;;;;12.05;8.80;;;;;;;1.08;85.16;95101.58;1776155;78;20973;-82
2021/12/24 01:15:06;;;;;;;8.35;6.20;;;;;;;1.09;85.47;95098.06;1777854;78;21057;-82
2021/12/24 01:17:48;;;;;;;7.03;6.00;;;;;;;1.11;85.09;95101.27;1780115;78;20978;-82
2021/12/24 01:20:25;;;;;;;8.73;5.92;;;;;;;1.13;85.26;95106.22;1774062;79;21055;-82
2021/12/24 01:38:32;;;;;;;13.00;10.55;;;;;;;0.89;85.94;95083.45;1787661;78;21032;-83
2021/12/24 01:43:16;;;;;;;17.65;11.97;;;;;;;0.83;86.96;95077.67;1823967;77;22265;-83
2021/12/24 01:45:42;;;;;;;15.55;9.70;;;;;;;0.83;86.80;95076.40;1796223;77;21037;-82
2021/12/24 01:48:09;;;;;;;23.05;14.23;;;;;;;0.83;86.39;95062.81;1773809;77;21045;-83
2021/12/24 01:50:36;;;;;;;8.73;7.37;;;;;;;0.85;86.75;95062.17;1811153;77;21046;-82
2021/12/24 01:53:04;;;;;;;11.48;8.75;;;;;;;0.89;86.92;95059.63;1815075;77;21095;-82
2021/12/24 01:55:30;;;;;;;7.37;6.30;;;;;;;0.90;87.27;95054.83;1773010;78;21008;-83
2021/12/24 01:57:56;;;;;;;5.47;4.53;;;;;;;0.89;87.77;95029.73;1775811;78;21059;-82
2021/12/24 02:00:26;;;;;;;8.60;6.40;;;;;;;0.89;87.97;95037.41;1786423;79;21385;-82
2021/12/24 02:02:52;;;;;;;8.33;6.35;;;;;;;0.90;87.45;95029.26;1778511;78;21008;-82
2021/12/24 02:05:18;;;;;;;10.10;6.87;;;;;;;0.92;87.66;95036.30;1784535;78;21065;-83
2021/12/24 02:07:45;;;;;;;12.98;9.43;;;;;;;0.97;87.75;95040.94;1775250;78;21417;-83
2021/12/24 02:10:12;;;;;;;9.15;7.40;;;;;;;0.94;87.44;95035.66;1804315;78;21692;-83
2021/12/24 02:12:39;;;;;;;7.75;5.80;;;;;;;0.92;87.69;95007.36;1790102;78;21042;-83
2021/12/24 02:15:12;;;;;;;11.03;8.18;;;;;;;0.98;88.17;95033.14;1800787;77;20964;-82
2021/12/24 02:17:56;;;;;;;8.33;5.87;;;;;;;0.99;87.89;95004.05;1808014;77;21027;-82
2021/12/24 02:30:47;;;;;;;6.85;5.90;;;;;;;1.14;86.43;94993.52;1811806;77;20991;-83
2021/12/24 02:33:13;;;;;;;6.45;5.17;;;;;;;1.20;86.69;94996.72;1797796;77;21037;-83
2021/12/24 02:35:38;;;;;;;6.62;5.00;;;;;;;1.22;86.38;95006.00;1816148;77;21069;-83
2021/12/24 02:38:04;;;;;;;6.83;5.22;;;;;;;1.24;86.91;94997.20;1811429;77;21412;-83
2021/12/24 02:40:31;;;;;;;6.08;4.75;;;;;;;1.32;86.60;94982.34;1822295;77;21435;-83
2021/12/24 02:42:58;;;;;;;5.33;4.20;;;;;;;1.37;86.33;94996.26;1798909;77;21061;-83
2021/12/24 02:45:26;;;;;;;6.37;5.08;;;;;;;1.40;86.03;94993.37;1805636;77;21033;-83
2021/12/24 02:56:04;;;;;;;6.03;5.12;;;;;;;1.50;84.96;94961.23;1781547;78;21328;-83
2021/12/24 02:58:43;;;;;;;6.80;4.62;;;;;;;1.57;85.22;94964.73;1769842;78;21062;-83
2021/12/24 03:01:12;;;;;;;4.97;4.20;;;;;;;1.62;85.24;94964.25;1774778;78;20961;-83
2021/12/24 03:03:38;;;;;;;4.20;3.75;;;;;;;1.71;84.87;94947.45;1784011;78;21015;-83
2021/12/24 03:06:05;;;;;;;5.05;4.08;;;;;;;1.75;84.80;94947.92;1808127;77;21057;-83
2021/12/24 03:08:31;;;;;;;4.75;3.62;;;;;;;1.79;84.88;94947.45;1800478;78;20991;-83
2021/12/24 03:10:58;;;;;;;5.10;4.50;;;;;;;1.85;84.49;94966.97;1787848;78;21101;-83
2021/12/24 03:13:25;;;;;;;6.12;4.78;;;;;;;1.86;84.31;94977.05;1776062;78;21057;-83
2021/12/24 03:15:53;;;;;;;5.17;4.47;;;;;;;1.86;83.86;94969.36;1782026;78;21117;-83
2021/12/24 03:18:24;;;;;;;4.83;4.10;;;;;;;1.88;84.06;94961.03;1756892;79;21354;-82
2021/12/24 03:20:46;;;;;;;5.28;4.70;;;;;;;1.95;83.67;94967.57;1787083;78;21031;-83
2021/12/24 03:23:33;;;;;;;6.22;4.58;;;;;;;1.96;83.90;94960.23;1790750;78;21060;-83
2021/12/24 03:25:40;;;;;;;8.33;6.15;;;;;;;1.98;84.21;94950.62;1781329;78;20975;-83
2021/12/24 03:28:06;;;;;;;8.03;6.08;;;;;;;2.03;83.98;94955.55;1792707;78;20999;-83
2021/12/24 03:30:32;;;;;;;9.15;6.25;;;;;;;2.04;83.73;94952.03;1802661;77;21066;-83
2021/12/24 03:32:58;;;;;;;8.03;5.20;;;;;;;2.05;83.78;94943.38;1820297;77;20967;-82
2021/12/24 03:35:24;;;;;;;5.87;4.92;;;;;;;2.04;83.47;94952.52;1795656;78;21413;-83
2021/12/24 03:37:50;;;;;;;7.62;5.37;;;;;;;2.03;83.72;94966.28;1783464;78;20970;-83
2021/12/24 03:40:16;;;;;;;6.58;5.05;;;;;;;2.02;83.90;94940.35;1788360;78;20971;-83
2021/12/24 03:42:42;;;;;;;6.78;5.50;;;;;;;2.03;84.20;94948.36;1799061;78;21017;-83
2021/12/24 03:45:23;;;;;;;10.20;7.95;;;;;;;2.01;84.11;94945.96;1783266;78;21852;-83
2021/12/24 03:47:40;;;;;;;7.85;6.62;;;;;;;2.00;84.17;94946.92;1787973;78;21066;-84
2021/12/24 03:50:09;;;;;;;7.40;5.78;;;;;;;1.97;84.21;94945.98;1782659;78;21011;-83
2021/12/24 03:52:50;;;;;;;6.03;5.42;;;;;;;1.95;84.24;94941.50;1826833;77;21442;-83
2021/12/24 03:55:00;;;;;;;6.20;5.58;;;;;;;1.94;84.34;94955.24;1794895;77;21000;-83
2021/12/24 03:57:31;;;;;;;6.47;4.60;;;;;;;1.91;84.52;94945.81;1828388;77;21385;-83
2021/12/24 04:00:08;;;;;;;5.95;5.25;;;;;;;1.86;84.73;94947.59;1783315;79;21023;-83
2021/12/24 04:02:33;;;;;;;6.37;5.62;;;;;;;1.87;85.08;94937.66;1780907;78;21003;-83
2021/12/24 04:04:59;;;;;;;6.80;5.25;;;;;;;1.89;84.78;94932.37;1795332;78;21263;-83
2021/12/24 04:07:25;;;;;;;7.33;6.05;;;;;;;1.86;85.03;94941.67;1784026;78;20991;-83
2021/12/24 04:12:16;;;;;;;9.70;6.78;;;;;;;1.82;85.24;94937.84;1781498;78;21035;-83
2021/12/24 04:14:42;;;;;;;9.48;6.15;;;;;;;1.77;85.47;94931.91;1776886;78;22214;-83
2021/12/24 04:17:08;;;;;;;6.90;5.35;;;;;;;1.75;85.97;94910.30;1782476;78;20982;-83
2021/12/24 04:25:04;;;;;;;6.22;5.58;;;;;;;1.85;86.60;94917.81;1775440;79;21016;-84
2021/12/24 04:27:30;;;;;;;5.55;4.72;;;;;;;1.88;86.71;94909.00;1799183;78;21094;-83
2021/12/24 04:30:10;;;;;;;5.08;4.58;;;;;;;1.88;87.08;94893.64;1781741;78;21400;-83
2021/12/24 04:51:24;;;;;;;7.65;5.58;;;;;;;2.14;88.20;94894.20;1770357;78;20992;-83
2021/12/24 05:04:37;;;;;;;6.10;5.10;;;;;;;2.37;88.77;94879.67;1775173;78;20960;-83
2021/12/24 05:07:17;;;;;;;6.28;4.30;;;;;;;2.38;88.49;94887.67;1771517;78;21015;-83
2021/12/24 05:09:32;;;;;;;5.22;4.37;;;;;;;2.39;88.48;94894.40;1807870;77;20959;-83
2021/12/24 05:11:57;;;;;;;5.92;5.03;;;;;;;2.39;88.93;94893.12;1741646;79;21042;-83
2021/12/24 05:14:27;;;;;;;6.70;4.90;;;;;;;2.40;88.89;94901.13;1813632;77;21118;-83
2021/12/24 05:17:04;;;;;;;6.78;5.05;;;;;;;2.43;89.04;94899.98;1813724;77;21400;-83
2021/12/24 05:22:04;;;;;;;5.10;4.17;;;;;;;2.48;89.10;94903.34;1811012;77;21070;-83
2021/12/24 05:24:30;;;;;;;5.00;4.10;;;;;;;2.50;89.67;94904.77;1807149;77;21559;-83
2021/12/24 05:27:01;;;;;;;7.37;5.60;;;;;;;2.51;89.66;94889.70;1779262;78;21855;-83
2021/12/24 05:29:27;;;;;;;4.53;3.83;;;;;;;2.54;89.92;94900.10;1815465;77;21035;-83
2021/12/24 05:31:53;;;;;;;6.50;4.37;;;;;;;2.51;89.46;94903.80;1768304;78;21022;-83
2021/12/24 05:34:19;;;;;;;7.00;6.28;;;;;;;2.52;89.46;94896.91;1780533;78;21022;-83
2021/12/24 05:36:47;;;;;;;4.83;4.15;;;;;;;2.54;89.57;94905.23;1745482;78;21020;-83
2021/12/24 05:39:15;;;;;;;5.85;4.40;;;;;;;2.56;90.97;94898.16;1808849;77;21062;-83
2021/12/24 05:41:41;;;;;;;3.60;3.25;;;;;;;2.61;90.86;94906.17;1807972;77;21389;-83
2021/12/24 05:44:09;;;;;;;4.42;3.72;;;;;;;2.70;91.72;94903.38;1815863;77;20925;-83
2021/12/24 05:46:35;;;;;;;5.45;3.58;;;;;;;2.80;91.76;94910.07;1815763;77;21370;-83
2021/12/24 05:49:00;;;;;;;3.20;2.87;;;;;;;2.87;92.21;94905.84;1770529;78;21405;-83
2021/12/24 05:51:26;;;;;;;3.40;2.87;;;;;;;2.95;92.36;94896.34;1808192;77;21061;-83
2021/12/24 05:53:52;;;;;;;3.50;3.20;;;;;;;3.04;92.92;94898.83;1779273;78;21109;-83
2021/12/24 05:56:17;;;;;;;5.75;3.62;;;;;;;3.09;92.69;94899.11;1791812;78;21081;-83
2021/12/24 05:58:43;;;;;;;4.15;3.00;;;;;;;3.14;92.71;94901.98;1788302;78;21084;-83
2021/12/24 06:01:09;;;;;;;6.45;4.40;;;;;;;3.16;92.96;94896.98;1787652;78;21035;-83
2021/12/24 06:03:35;;;;;;;5.53;4.80;;;;;;;3.20;92.33;94888.45;1787785;78;21354;-82
2021/12/24 06:06:01;;;;;;;5.70;3.80;;;;;;;3.23;92.39;94895.80;1780277;78;20951;-83
2021/12/24 06:08:27;;;;;;;5.05;3.37;;;;;;;3.26;92.16;94888.58;1762453;78;21112;-83
2021/12/24 06:10:55;;;;;;;5.47;3.95;;;;;;;3.26;92.05;94896.28;1779496;78;21139;-83
2021/12/24 06:13:23;;;;;;;4.90;4.15;;;;;;;3.25;91.70;94901.55;1770118;79;21044;-83
2021/12/24 06:15:49;;;;;;;5.33;4.40;;;;;;;3.23;92.10;94898.36;1780544;77;21958;-83
2021/12/24 06:18:26;;;;;;;5.08;3.87;;;;;;;3.24;91.73;94902.04;1795825;77;21113;-83
2021/12/24 06:20:54;;;;;;;5.22;3.90;;;;;;;3.24;91.65;94897.39;1751079;79;21045;-83
2021/12/24 06:23:21;;;;;;;5.28;3.72;;;;;;;3.26;91.39;94900.61;1753109;79;21342;-83
2021/12/24 06:25:48;;;;;;;6.40;4.33;;;;;;;3.27;91.48;94894.51;1783388;78;21114;-82
2021/12/24 06:28:14;;;;;;;4.70;3.62;;;;;;;3.25;91.29;94910.08;1815790;78;21033;-82
2021/12/24 06:30:41;;;;;;;5.40;4.25;;;;;;;3.25;91.40;94918.23;1798876;78;21035;-82
2021/12/24 06:33:07;;;;;;;4.62;3.75;;;;;;;3.23;91.33;94924.83;1788686;79;20960;-83
2021/12/24 06:35:33;;;;;;;6.10;4.42;;;;;;;3.20;91.72;94941.06;1782886;79;21059;-82
2021/12/24 06:38:00;;;;;;;3.50;3.08;;;;;;;3.18;91.80;94921.19;1783345;79;21389;-82
2021/12/24 06:40:25;;;;;;;3.72;2.95;;;;;;;3.18;91.81;94919.91;1763942;79;21392;-82
2021/12/24 06:42:51;;;;;;;5.80;4.15;;;;;;;3.28;92.31;94910.22;1773087;79;21062;-82
2021/12/24 06:45:21;;;;;;;4.03;3.33;;;;;;;3.35;91.65;94914.16;1755578;79;21418;-82
2021/12/24 06:47:45;;;;;;;4.87;3.72;;;;;;;3.36;91.10;94928.59;1730459;79;21073;-82
2021/12/24 06:50:11;;;;;;;3.45;3.08;;;;;;;3.36;91.37;94929.88;1729999;79;21422;-82
2021/12/24 06:52:37;;;;;;;4.80;3.62;;;;;;;3.37;91.27;94946.88;1779430;79;21028;-82
2021/12/24 06:55:04;;;;;;;4.03;3.47;;;;;;;3.38;91.36;94936.92;1776198;79;21394;-81
2021/12/24 06:57:30;;;;;;;4.95;4.08;;;;;;;3.35;91.37;94944.48;1758957;79;20996;-82
2021/12/24 06:59:56;;;;;;;4.33;3.67;;;;;;;3.34;91.04;94928.77;1758726;80;21130;-82
2021/12/24 07:02:21;;;;;;;4.00;3.25;;;;;;;3.36;91.16;94935.02;1772729;79;21517;-81
2021/12/24 07:04:47;;;;;;;4.83;3.80;;;;;;;3.38;91.07;94935.64;1775860;78;21054;-81
2021/12/24 07:07:15;;;;;;;5.00;3.55;;;;;;;3.38;90.84;94930.02;1769066;78;21137;-82
2021/12/24 07:09:42;;;;;;;5.10;4.22;;;;;;;3.41;90.97;94943.78;1769814;79;21015;-82
2021/12/24 07:12:11;;;;;;;4.10;3.62;;;;;;;3.42;90.76;94935.14;1770510;79;21074;-81
2021/12/24 07:14:38;;;;;;;4.28;3.98;;;;;;;3.42;90.70;94925.36;1751729;79;21160;-81
2021/12/24 07:17:05;;;;;;;5.08;4.20;;;;;;;3.42;90.61;94927.92;1775644;79;21123;-81
2021/12/24 07:19:30;;;;;;;5.12;4.20;;;;;;;3.42;90.45;94937.71;1787558;79;21035;-81
2021/12/24 07:21:56;;;;;;;4.00;3.60;;;;;;;3.42;90.48;94924.87;1776027;79;21066;-81
2021/12/24 07:24:22;;;;;;;4.05;3.65;;;;;;;3.45;90.42;94940.41;1757068;79;21022;-81
2021/12/24 07:26:47;;;;;;;4.45;3.70;;;;;;;3.47;90.26;94945.69;1745361;79;20967;-81
2021/12/24 07:29:13;;;;;;;5.28;3.90;;;;;;;3.48;90.21;94942.14;1785677;78;20992;-81
2021/12/24 07:31:39;;;;;;;5.00;4.20;;;;;;;3.48;90.16;94950.33;1762285;79;21000;-81
2021/12/24 07:34:05;;;;;;;4.62;4.10;;;;;;;3.47;90.14;94946.97;1763842;79;21014;-81
2021/12/24 07:36:30;;;;;;;6.72;4.62;;;;;;;3.46;90.32;94949.71;1788222;78;21351;-82
2021/12/24 07:38:56;;;;;;;5.28;4.15;;;;;;;3.47;90.23;94941.83;1759243;79;20960;-81
2021/12/24 07:41:24;;;;;;;5.10;4.55;;;;;;;3.51;90.18;94946.13;1777598;78;20944;-81
2021/12/24 07:43:50;;;;;;;5.70;4.50;;;;;;;3.55;90.03;94944.80;1816503;77;20975;-81
2021/12/24 07:46:15;;;;;;;5.40;4.90;;;;;;;3.58;89.87;94929.88;1777832;78;21465;-81
2021/12/24 07:48:48;;;;;;;5.15;4.20;;;;;;;3.63;89.94;94919.06;1780368;79;21079;-81
2021/12/24 07:52:02;;;;;;;7.08;5.92;;;;;;;3.67;89.90;94925.45;1811151;78;21088;-81
2021/12/24 07:53:40;;;;;;;4.95;4.03;;;;;;;3.67;89.82;94942.63;1700102;81;21023;-82
2021/12/24 07:56:05;;;;;;;3.92;3.35;;;;;;;3.67;89.93;94933.64;1771839;78;21015;-81
2021/12/24 07:58:31;;;;;;;4.28;3.55;;;;;;;3.68;90.08;94934.75;1748723;80;21421;-81
2021/12/24 08:00:57;;;;;;;4.20;3.50;;;;;;;3.70;90.29;94930.23;1776710;78;20990;-81
2021/12/24 08:03:26;;;;;;;4.90;3.75;;;;;;;3.76;90.28;94923.13;1771926;79;21391;-81
2021/12/24 08:05:51;;;;;;;4.30;3.40;;;;;;;3.82;90.13;94938.32;1776046;79;21413;-81
2021/12/24 08:08:17;;;;;;;4.90;3.77;;;;;;;3.88;90.12;94925.55;1785839;79;20965;-81
2021/12/24 08:10:43;;;;;;;3.92;3.52;;;;;;;3.92;89.95;94923.45;1767719;79;20980;-81
2021/12/24 08:13:09;;;;;;;5.90;3.75;;;;;;;3.93;90.13;94921.69;1768889;79;21052;-81
2021/12/24 08:15:35;;;;;;;6.40;4.60;;;;;;;3.93;89.92;94916.55;1768468;78;21068;-81
2021/12/24 08:18:02;;;;;;;5.70;4.47;;;;;;;3.93;89.65;94928.91;1774768;78;21065;-81
2021/12/24 08:20:27;;;;;;;6.60;4.92;;;;;;;3.94;89.24;94934.84;1787282;78;20984;-81
2021/12/24 08:22:55;;;;;;;5.60;4.92;;;;;;;3.94;89.11;94918.14;1798187;77;20997;-82
2021/12/24 08:25:22;;;;;;;5.45;3.83;;;;;;;3.94;89.17;94930.50;1775661;79;21527;-82
2021/12/24 08:27:48;;;;;;;3.70;3.15;;;;;;;3.95;89.99;94923.09;1772347;79;21085;-82
2021/12/24 08:30:14;;;;;;;4.50;3.33;;;;;;;4.02;90.30;94931.69;1749259;78;22243;-81
2021/12/24 08:32:41;;;;;;;4.80;3.72;;;;;;;4.08;90.40;94918.15;1776396;77;20987;-81
2021/12/24 08:35:14;;;;;;;3.40;3.00;;;;;;;4.15;90.12;94915.66;1767305;78;21491;-81
2021/12/24 08:37:40;;;;;;;3.30;3.00;;;;;;;4.21;90.07;94918.79;1756602;78;21031;-81
2021/12/24 08:40:07;;;;;;;4.30;3.27;;;;;;;4.28;89.79;94893.18;1781128;79;20975;-81
2021/12/24 08:42:33;;;;;;;3.77;3.20;;;;;;;4.33;89.66;94908.86;1763627;79;21134;-81
2021/12/24 08:44:59;;;;;;;4.75;4.20;;;;;;;4.33;89.68;94914.00;1776115;78;21028;-81
2021/12/24 08:47:25;;;;;;;8.33;5.85;;;;;;;4.33;89.66;94917.86;1743714;80;20989;-81
2021/12/24 08:49:51;;;;;;;9.75;6.47;;;;;;;4.35;89.50;94915.91;1771549;79;21405;-81
2021/12/24 08:52:17;;;;;;;23.02;15.13;;;;;;;4.34;89.48;94917.67;1767270;78;20936;-81
2021/12/24 08:54:42;;;;;;;65.20;31.80;;;;;;;4.38;89.93;94906.54;1784543;78;20996;-81
2021/12/24 08:57:08;;;;;;;155.87;86.25;;;;;;;4.43;89.86;94909.39;1758821;78;21016;-81
2021/12/24 08:59:34;;;;;;;37.58;21.50;;;;;;;4.45;89.92;94912.58;1756659;79;22051;-81
2021/12/24 09:02:02;;;;;;;52.27;22.73;;;;;;;4.44;90.19;94910.98;1785326;78;21009;-81
2021/12/24 09:04:28;;;;;;;50.95;23.92;;;;;;;4.46;90.34;94902.59;1778424;79;21410;-81
2021/12/24 09:06:54;;;;;;;56.02;24.37;;;;;;;4.48;90.45;94903.21;1763680;79;21124;-81
2021/12/24 09:09:19;;;;;;;14.15;7.22;;;;;;;4.52;90.58;94900.09;1785003;78;21489;-82
2021/12/24 09:11:46;;;;;;;20.17;8.70;;;;;;;4.56;90.26;94899.27;1729024;78;21124;-81
2021/12/24 09:14:17;;;;;;;46.23;16.75;;;;;;;4.61;90.33;94896.94;1789425;78;21454;-81
2021/12/24 09:16:40;;;;;;;34.78;18.30;;;;;;;4.66;90.17;94882.23;1792792;78;21111;-81
2021/12/24 09:19:09;;;;;;;57.55;24.23;;;;;;;4.68;89.96;94897.00;1773683;79;21473;-81
2021/12/24 09:21:33;;;;;;;56.88;17.98;;;;;;;4.71;90.18;94879.91;1784922;78;21856;-81
2021/12/24 09:24:01;;;;;;;19.05;9.05;;;;;;;4.75;90.10;94881.16;1770209;79;21108;-81
2021/12/24 09:26:29;;;;;;;17.37;8.10;;;;;;;4.77;89.93;94883.06;1747001;79;21003;-81
2021/12/24 09:28:56;;;;;;;10.15;6.60;;;;;;;4.80;89.70;94877.05;1760031;78;20980;-81
2021/12/24 09:31:25;;;;;;;10.43;7.12;;;;;;;4.85;89.61;94872.64;1766050;78;20991;-81
2021/12/24 09:33:51;;;;;;;7.85;5.78;;;;;;;4.91;89.69;94874.98;1766725;79;21436;-81
2021/12/24 09:36:25;;;;;;;5.75;4.65;;;;;;;4.93;89.65;94871.25;1783149;79;21076;-81
2021/12/24 09:38:49;;;;;;;6.25;4.00;;;;;;;4.96;89.67;94865.73;1808521;78;21012;-82
2021/12/24 09:41:15;;;;;;;6.17;4.95;;;;;;;4.98;89.58;94871.48;1802670;78;21007;-81
2021/12/24 09:43:41;;;;;;;12.65;6.20;;;;;;;5.01;89.24;94861.30;1784739;78;21519;-82
2021/12/24 09:46:07;;;;;;;14.38;7.20;;;;;;;5.05;89.46;94859.98;1768533;79;21064;-80
2021/12/24 09:48:33;;;;;;;5.85;4.28;;;;;;;5.07;89.15;94860.59;1766535;79;21078;-80
2021/12/24 09:50:58;;;;;;;3.95;3.17;;;;;;;5.09;89.22;94858.13;1771499;78;21451;-80
2021/12/24 09:53:24;;;;;;;3.72;2.70;;;;;;;5.12;89.18;94871.92;1779479;78;21000;-80
2021/12/24 09:55:50;;;;;;;3.60;2.62;;;;;;;5.13;89.18;94868.84;1772932;79;21109;-80
2021/12/24 09:58:16;;;;;;;4.53;3.20;;;;;;;5.13;89.21;94876.58;1790703;77;22540;-80
2021/12/24 10:00:43;;;;;;;5.20;3.55;;;;;;;5.18;89.25;94864.42;1773215;78;21503;-80
2021/12/24 10:03:09;;;;;;;3.35;2.65;;;;;;;5.19;89.05;94856.52;1720700;80;21098;-80
2021/12/24 10:05:40;;;;;;;4.03;2.52;;;;;;;5.25;89.11;94840.34;1799904;77;21274;-81
2021/12/24 10:08:19;;;;;;;3.72;3.22;;;;;;;5.32;89.10;94838.59;1789289;79;21087;-80
2021/12/24 10:10:50;;;;;;;5.53;2.90;;;;;;;5.37;88.89;94837.56;1773483;78;21013;-80
2021/12/24 10:13:43;;;;;;;2.62;2.05;;;;;;;5.40;88.67;94821.73;1779115;77;21387;-80
2021/12/24 10:16:22;;;;;;;3.90;3.30;;;;;;;5.41;88.87;94823.81;1779075;78;21075;-80
2021/12/24 10:18:54;;;;;;;4.47;2.70;;;;;;;5.44;88.79;94824.72;1756686;79;21588;-80
2021/12/24 10:21:24;;;;;;;4.80;2.90;;;;;;;5.49;88.67;94821.58;1742710;79;21541;-81
2021/12/24 10:24:02;;;;;;;4.03;2.87;;;;;;;5.56;88.71;94826.30;1770130;79;21066;-80
2021/12/24 10:26:36;;;;;;;5.05;2.85;;;;;;;5.61;88.64;94817.01;1776989;79;21044;-80
2021/12/24 10:29:14;;;;;;;4.62;3.08;;;;;;;5.64;88.15;94830.00;1791377;78;20963;-81
2021/12/24 10:31:49;;;;;;;5.25;3.17;;;;;;;5.68;88.03;94829.92;1787259;78;21146;-80
2021/12/24 10:34:22;;;;;;;4.00;2.50;;;;;;;5.70;87.89;94827.98;1756435;80;21516;-81
2021/12/24 10:37:02;;;;;;;3.62;2.33;;;;;;;5.71;87.90;94831.65;1770447;78;21401;-81
2021/12/24 10:39:41;;;;;;;5.22;3.47;;;;;;;5.73;87.75;94831.45;1777525;78;21054;-80
2021/12/24 10:42:27;;;;;;;4.05;2.90;;;;;;;5.77;87.70;94833.16;1792493;78;21019;-81
2021/12/24 10:44:53;;;;;;;4.47;2.60;;;;;;;5.83;87.63;94820.79;1775134;78;21050;-80
2021/12/24 10:47:28;;;;;;;3.65;2.40;;;;;;;5.86;87.26;94807.05;1822340;77;20959;-81
2021/12/24 10:50:08;;;;;;;3.70;2.90;;;;;;;5.86;87.03;94819.94;1785415;79;20960;-81
2021/12/24 10:52:46;;;;;;;5.03;3.55;;;;;;;5.87;87.35;94813.00;1796425;79;20965;-81
2021/12/24 10:55:09;;;;;;;3.87;2.92;;;;;;;5.89;87.17;94820.84;1776038;79;20991;-81
2021/12/24 10:57:40;;;;;;;5.72;4.20;;;;;;;5.93;86.91;94834.97;1778661;80;20976;-80
2021/12/24 11:00:33;;;;;;;4.22;3.22;;;;;;;5.93;86.72;94846.56;1778507;78;21359;-81
2021/12/24 11:03:06;;;;;;;5.62;4.05;;;;;;;5.97;86.64;94839.24;1773241;79;21070;-80
2021/12/24 11:05:39;;;;;;;4.55;3.22;;;;;;;6.00;86.87;94833.70;1794017;79;21039;-80
2021/12/24 11:08:09;;;;;;;16.02;8.80;;;;;;;6.03;86.62;94817.87;1796506;78;21346;-81
2021/12/24 11:10:38;;;;;;;7.20;3.92;;;;;;;6.05;86.73;94810.73;1790733;78;21050;-81
2021/12/24 11:13:15;;;;;;;20.85;7.55;;;;;;;6.06;86.60;94810.24;1792225;78;21497;-80
2021/12/24 11:15:46;;;;;;;119.13;53.50;;;;;;;6.08;86.36;94797.45;1787477;78;21020;-80
2021/12/24 11:18:24;;;;;;;23.20;9.63;;;;;;;6.12;86.51;94788.34;1777031;79;21046;-80
2021/12/24 11:20:57;;;;;;;31.70;10.90;;;;;;;6.12;86.45;94788.34;1794892;78;21377;-80
2021/12/24 11:23:26;;;;;;;30.57;9.98;;;;;;;6.12;86.65;94799.15;1780085;78;20983;-81
2021/12/24 11:25:54;;;;;;;39.08;12.33;;;;;;;6.12;86.87;94809.47;1787311;79;21060;-80
2021/12/24 11:28:23;;;;;;;18.90;7.75;;;;;;;6.12;86.84;94781.89;1794254;79;20998;-81
2021/12/24 11:30:54;;;;;;;23.35;8.28;;;;;;;6.11;86.85;94788.53;1771691;79;21036;-81
2021/12/24 11:33:26;;;;;;;28.32;10.78;;;;;;;6.11;86.86;94800.14;1791497;79;21092;-80
2021/12/24 11:35:52;;;;;;;;;;;;;;;6.10;86.86;94796.77;1790776;79;21056;-80
2021/12/24 11:38:21;;;;;;;13.35;6.12;;;;;;;6.12;86.92;94800.44;1765504;79;20394;-80
2021/12/24 11:40:49;;;;;;;12.30;9.80;;;;;;;6.08;86.85;94795.37;1785946;79;20960;-80
2021/12/24 11:43:16;;;;;;;16.17;8.35;;;;;;;6.06;86.80;94804.59;1791413;78;21082;-81
2021/12/24 11:45:43;;;;;;;18.25;8.58;;;;;;;6.06;86.95;94793.48;1775669;79;20988;-80
2021/12/24 11:48:09;;;;;;;12.20;5.17;;;;;;;6.07;86.92;94784.76;1773459;79;21450;-79
2021/12/24 11:50:35;;;;;;;11.38;5.12;;;;;;;6.08;86.89;94787.63;1801582;77;21378;-80
2021/12/24 11:53:05;;;;;;;8.60;4.97;;;;;;;6.08;86.85;94785.06;1785315;78;20980;-80
2021/12/24 11:55:41;;;;;;;4.47;3.45;;;;;;;6.08;86.87;94781.19;1775763;78;21079;-81
2021/12/24 11:58:15;;;;;;;4.83;3.02;;;;;;;6.09;86.96;94777.63;1783886;79;20968;-82
2021/12/24 12:00:42;;;;;;;5.17;3.22;;;;;;;6.12;86.96;94769.00;1779729;78;20960;-82
2021/12/24 12:03:12;;;;;;;6.25;3.27;;;;;;;6.17;86.77;94774.86;1768424;79;21088;-79
2021/12/24 12:05:38;;;;;;;4.80;2.98;;;;;;;6.21;86.67;94768.34;1776755;79;21027;-79
2021/12/24 12:08:36;;;;;;;4.00;2.55;;;;;;;6.24;86.55;94758.93;1773214;78;21437;-80
2021/12/24 12:11:06;;;;;;;3.42;2.45;;;;;;;6.25;86.47;94750.99;1776104;79;21029;-80
2021/12/24 12:13:31;;;;;;;4.50;2.70;;;;;;;6.29;86.35;94749.61;1788349;79;21007;-79
2021/12/24 12:15:57;;;;;;;3.00;2.33;;;;;;;6.32;86.37;94751.80;1792625;79;21421;-79
2021/12/24 12:18:33;;;;;;;2.92;2.27;;;;;;;6.37;86.20;94736.25;1753501;79;21177;-79
2021/12/24 12:24:57;;;;;;;3.98;2.60;;;;;;;6.45;86.11;94754.11;1776156;79;21127;-79
2021/12/24 12:26:46;;;;;;;4.67;3.40;;;;;;;6.43;86.15;94756.09;1770036;79;21079;-79
2021/12/24 12:29:43;;;;;;;3.05;2.75;;;;;;;6.41;86.47;94767.90;1774868;79;21660;-82
2021/12/24 12:32:20;;;;;;;2.83;2.40;;;;;;;6.39;86.54;94750.53;1802738;77;21012;-82
2021/12/24 12:34:48;;;;;;;3.90;3.20;;;;;;;6.39;86.51;94772.95;1757329;79;21554;-81
2021/12/24 12:37:31;;;;;;;4.08;3.27;;;;;;;6.41;86.59;94778.72;1783091;79;21075;-81
2021/12/24 12:40:08;;;;;;;4.67;3.35;;;;;;;6.41;86.55;94777.42;1794426;78;20944;-82
2021/12/24 12:43:08;;;;;;;4.47;3.72;;;;;;;6.40;86.45;94775.34;1778845;78;21115;-81
2021/12/24 12:45:41;;;;;;;5.70;3.60;;;;;;;6.45;86.41;94770.88;1794898;78;21001;-81
2021/12/24 12:48:10;;;;;;;5.00;3.98;;;;;;;6.49;86.17;94788.84;1762432;79;21110;-81
2021/12/24 12:50:36;;;;;;;7.20;5.00;;;;;;;6.47;86.15;94779.22;1775861;79;20967;-81
2021/12/24 12:53:28;;;;;;;3.47;2.33;;;;;;;6.49;86.08;94796.09;1791666;78;21063;-81
2021/12/24 12:56:18;;;;;;;5.50;3.90;;;;;;;6.50;85.88;94786.06;1780738;78;21006;-81
2021/12/24 12:59:01;;;;;;;5.40;3.42;;;;;;;6.48;85.90;94775.15;1799489;77;20957;-81
2021/12/24 13:01:28;;;;;;;6.80;5.37;;;;;;;6.49;85.88;94788.84;1803508;78;20995;-81
2021/12/24 13:04:06;;;;;;;7.03;4.55;;;;;;;6.48;85.79;94806.61;1780585;77;20992;-81
2021/12/24 13:06:41;;;;;;;5.12;3.30;;;;;;;6.48;85.84;94809.19;1763671;78;20981;-82
2021/12/24 13:09:13;;;;;;;8.03;5.42;;;;;;;6.46;85.75;94811.97;1801823;77;20940;-82
2021/12/24 13:11:44;;;;;;;6.08;4.45;;;;;;;6.43;85.89;94802.03;1808253;77;21062;-81
2021/12/24 13:14:11;;;;;;;9.00;6.50;;;;;;;6.41;85.82;94804.02;1807549;77;21506;-81
2021/12/24 13:16:52;;;;;;;10.13;8.00;;;;;;;6.41;85.80;94787.25;1788099;78;20995;-81
2021/12/24 13:25:10;;;;;;;10.90;5.58;;;;;;;6.47;85.95;94800.66;1787987;78;21010;-81
2021/12/24 13:27:39;;;;;;;21.95;10.00;;;;;;;6.49;85.88;94792.72;1810255;77;20977;-81
2021/12/24 13:30:24;;;;;;;38.95;29.92;;;;;;;6.50;85.86;94801.55;1827288;77;20986;-81